Time;durP1;ratioP1;P1;durP2;ratioP2;P2;SDS_P1;SDS_P2;PMS_P1;PMS_P2;Temp;Humidity;BMP_temperature;BMP_pressure;BME280_temperature;BME280_humidity;BME280_pressure;Samples;Min_cycle;Max_cycle;Signal;HPM_P1;HPM_P2
2024/04/17 00:01:53;;;;;;;4.15;2.90;;;6.30;99.90;;;;;;472687;251;27921;-72
2024/04/17 00:03:55;;;;;;;2.63;2.40;;;6.30;99.90;;;;;;472682;251;28049;-72
2024/04/17 00:05:55;;;;;;;2.20;2.10;;;6.30;99.90;;;;;;472641;251;30210;-71
2024/04/17 00:07:56;;;;;;;3.10;2.80;;;6.20;99.90;;;;;;472701;251;27462;-71
2024/04/17 00:09:58;;;;;;;4.83;3.20;;;6.30;99.90;;;;;;472712;251;27458;-73
2024/04/17 00:11:59;;;;;;;2.70;2.40;;;6.30;99.90;;;;;;472707;251;27904;-71
2024/04/17 00:14:00;;;;;;;2.30;2.20;;;6.30;99.90;;;;;;472678;251;28831;-72
2024/04/17 00:16:04;;;;;;;3.00;2.60;;;6.30;99.90;;;;;;482466;246;27775;-74
2024/04/17 00:18:06;;;;;;;2.30;2.20;;;6.30;99.90;;;;;;482482;246;28583;-73
2024/04/17 00:20:07;;;;;;;5.43;2.67;;;6.30;99.90;;;;;;482466;246;27421;-72
2024/04/17 00:22:08;;;;;;;2.95;2.70;;;6.30;99.90;;;;;;482437;246;28576;-73
2024/04/17 00:24:09;;;;;;;5.43;3.10;;;6.20;99.90;;;;;;482466;246;27466;-71
2024/04/17 00:26:11;;;;;;;3.10;2.80;;;6.20;99.90;;;;;;482479;246;28716;-71
2024/04/17 00:28:12;;;;;;;2.85;2.65;;;6.10;99.90;;;;;;482443;246;28761;-72
2024/04/17 00:30:13;;;;;;;3.40;2.57;;;6.20;99.90;;;;;;482476;246;27501;-72
2024/04/17 00:32:14;;;;;;;4.28;2.83;;;6.20;99.90;;;;;;482465;246;28020;-72
2024/04/17 00:34:16;;;;;;;3.13;2.73;;;6.20;99.90;;;;;;482491;246;27958;-73
2024/04/17 00:36:17;;;;;;;3.00;2.80;;;6.20;99.90;;;;;;482483;246;29257;-72
2024/04/17 00:38:18;;;;;;;2.47;2.30;;;6.20;99.90;;;;;;482469;246;27530;-72
2024/04/17 00:40:19;;;;;;;3.67;2.20;;;6.20;99.90;;;;;;482478;246;28790;-71
2024/04/17 00:42:21;;;;;;;2.93;2.70;;;6.20;99.90;;;;;;482477;246;27442;-73
2024/04/17 00:44:22;;;;;;;2.60;2.40;;;6.20;99.90;;;;;;482487;246;28131;-72
2024/04/17 00:46:23;;;;;;;2.63;2.43;;;6.20;99.90;;;;;;482473;246;27394;-72
2024/04/17 00:48:24;;;;;;;2.73;2.53;;;6.20;99.90;;;;;;482485;246;28516;-72
2024/04/17 00:50:26;;;;;;;2.60;2.40;;;6.20;99.90;;;;;;482456;246;27976;-71
2024/04/17 00:52:27;;;;;;;2.70;2.50;;;6.10;99.90;;;;;;482473;246;29285;-71
2024/04/17 00:54:28;;;;;;;3.20;2.90;;;6.20;99.90;;;;;;482494;246;29322;-72
2024/04/17 00:56:30;;;;;;;2.80;2.60;;;6.10;99.90;;;;;;482495;246;27960;-72
2024/04/17 00:58:31;;;;;;;7.57;2.62;;;6.10;99.90;;;;;;482465;246;28308;-72
2024/04/17 01:00:32;;;;;;;2.90;2.70;;;6.10;99.90;;;;;;482462;246;27412;-71
2024/04/17 01:02:33;;;;;;;3.95;2.87;;;6.00;99.90;;;;;;482503;246;27949;-72
2024/04/17 01:04:34;;;;;;;3.60;2.70;;;6.10;99.90;;;;;;482478;246;27499;-73
2024/04/17 01:06:36;;;;;;;5.70;2.67;;;6.10;99.90;;;;;;482470;246;27392;-71
2024/04/17 01:08:37;;;;;;;3.33;2.70;;;6.10;99.90;;;;;;482463;246;27431;-72
2024/04/17 01:10:38;;;;;;;3.22;2.20;;;6.10;99.90;;;;;;482467;246;27922;-73
2024/04/17 01:12:40;;;;;;;2.35;2.15;;;5.80;99.90;;;;;;482449;246;27400;-72
2024/04/17 01:14:41;;;;;;;2.33;2.12;;;5.70;99.90;;;;;;482483;246;27437;-72
2024/04/17 01:16:42;;;;;;;2.17;2.05;;;5.70;99.90;;;;;;482493;246;27448;-72
2024/04/17 01:18:43;;;;;;;2.22;2.12;;;5.60;99.90;;;;;;482478;246;27380;-72
2024/04/17 01:20:45;;;;;;;6.18;2.10;;;5.60;99.90;;;;;;482519;246;27549;-72
2024/04/17 01:22:46;;;;;;;2.75;2.50;;;5.50;99.90;;;;;;482488;246;27922;-72
2024/04/17 01:24:47;;;;;;;2.85;2.65;;;5.40;99.90;;;;;;482479;246;27975;-72
2024/04/17 01:26:48;;;;;;;2.70;2.50;;;5.30;99.90;;;;;;482485;246;27439;-71
2024/04/17 01:28:50;;;;;;;2.70;2.50;;;5.30;99.90;;;;;;482474;246;27386;-72
2024/04/17 01:30:51;;;;;;;2.47;2.28;;;5.30;99.90;;;;;;482490;246;27420;-73
2024/04/17 01:32:52;;;;;;;2.45;2.35;;;5.30;99.90;;;;;;482479;246;27390;-71
2024/04/17 01:34:53;;;;;;;2.37;2.22;;;5.30;99.90;;;;;;482481;246;27423;-72
2024/04/17 01:36:55;;;;;;;2.20;2.10;;;5.30;99.90;;;;;;482498;246;27857;-74
2024/04/17 01:38:56;;;;;;;2.65;2.45;;;5.30;99.90;;;;;;482508;246;27858;-71
2024/04/17 01:40:57;;;;;;;2.55;2.35;;;5.20;99.90;;;;;;482508;246;27426;-72
2024/04/17 01:42:58;;;;;;;2.00;1.90;;;5.20;99.90;;;;;;482464;246;27446;-71
2024/04/17 01:45:00;;;;;;;2.20;2.10;;;5.20;99.90;;;;;;482471;246;27435;-72
2024/04/17 01:47:01;;;;;;;4.12;2.15;;;5.10;99.90;;;;;;482462;246;27422;-73
2024/04/17 01:49:02;;;;;;;2.25;2.15;;;4.90;99.90;;;;;;482435;246;27382;-71
2024/04/17 01:51:03;;;;;;;2.17;2.00;;;4.80;99.90;;;;;;482436;246;27426;-72
2024/04/17 01:53:18;;;;;;;2.00;1.60;;;;;;;;;;482436;246;28052;-73
2024/04/17 01:55:30;;;;;;;2.00;1.90;;;;;;;;;;464531;254;26433;-73
2024/04/17 01:57:31;;;;;;;2.10;2.00;;;4.70;99.90;;;;;;473919;250;26851;-72
2024/04/17 01:59:33;;;;;;;2.20;2.00;;;4.90;99.90;;;;;;473918;250;28678;-72
2024/04/17 02:01:34;;;;;;;2.10;2.00;;;4.70;99.90;;;;;;473931;250;27415;-72
2024/04/17 02:03:35;;;;;;;2.20;2.10;;;4.60;99.90;;;;;;473923;250;27454;-72
2024/04/17 02:05:36;;;;;;;2.22;2.03;;;4.70;99.90;;;;;;473895;250;27502;-72
2024/04/17 02:07:38;;;;;;;2.20;2.00;;;4.80;99.90;;;;;;473906;250;27559;-72
2024/04/17 02:09:39;;;;;;;1.83;1.73;;;4.80;99.90;;;;;;473926;250;27799;-72
2024/04/17 02:11:40;;;;;;;2.00;1.90;;;4.70;99.90;;;;;;473901;250;27527;-71
2024/04/17 02:13:41;;;;;;;2.40;2.10;;;4.70;99.90;;;;;;473902;250;27984;-72
2024/04/17 02:15:43;;;;;;;3.05;1.92;;;4.80;99.90;;;;;;473918;250;27874;-71
2024/04/17 02:17:44;;;;;;;1.85;1.75;;;4.80;99.90;;;;;;473901;250;27465;-72
2024/04/17 02:19:45;;;;;;;1.55;1.45;;;4.70;99.90;;;;;;473962;250;27458;-72
2024/04/17 02:21:47;;;;;;;1.60;1.50;;;4.70;99.90;;;;;;473910;250;27419;-71
2024/04/17 02:23:48;;;;;;;1.70;1.37;;;4.70;99.90;;;;;;473879;250;27538;-72
2024/04/17 02:25:49;;;;;;;1.40;1.40;;;4.60;99.90;;;;;;473938;250;27419;-71
2024/04/17 02:27:50;;;;;;;1.65;1.55;;;4.50;99.90;;;;;;473940;250;27428;-71
2024/04/17 02:29:52;;;;;;;1.80;1.70;;;4.50;99.90;;;;;;473885;250;27934;-71
2024/04/17 02:31:53;;;;;;;1.20;1.20;;;4.50;99.90;;;;;;473834;250;27886;-71
2024/04/17 02:33:54;;;;;;;1.40;1.30;;;4.60;99.90;;;;;;473849;250;27960;-72
2024/04/17 02:35:55;;;;;;;1.23;1.23;;;4.60;99.90;;;;;;473870;250;27460;-71
2024/04/17 02:37:57;;;;;;;1.30;1.20;;;4.70;99.90;;;;;;473939;250;27431;-72
2024/04/17 02:39:58;;;;;;;1.27;1.20;;;4.60;99.90;;;;;;473908;250;27546;-72
2024/04/17 02:41:59;;;;;;;1.05;1.05;;;4.50;99.90;;;;;;473900;250;27431;-71
2024/04/17 02:44:00;;;;;;;1.17;1.17;;;4.60;99.90;;;;;;473878;250;27463;-72
2024/04/17 02:46:02;;;;;;;1.37;1.27;;;4.60;99.90;;;;;;473910;250;27527;-73
2024/04/17 02:48:03;;;;;;;1.35;1.10;;;4.60;99.90;;;;;;473932;250;27990;-71
2024/04/17 02:50:04;;;;;;;1.10;1.10;;;4.60;99.90;;;;;;473915;250;27945;-71
2024/04/17 02:52:05;;;;;;;1.20;1.10;;;4.60;99.90;;;;;;473960;250;27432;-71
2024/04/17 02:54:07;;;;;;;1.20;1.20;;;4.50;99.90;;;;;;473949;250;27432;-71
2024/04/17 02:56:08;;;;;;;1.00;1.00;;;4.60;99.90;;;;;;473978;250;27553;-73
2024/04/17 02:58:09;;;;;;;1.25;1.25;;;4.60;99.90;;;;;;473960;250;27419;-71
2024/04/17 03:00:10;;;;;;;1.00;1.00;;;4.70;99.90;;;;;;473919;250;27512;-71
2024/04/17 03:02:12;;;;;;;1.58;1.20;;;4.60;99.90;;;;;;473943;250;27480;-72
2024/04/17 03:04:13;;;;;;;1.20;1.20;;;4.70;99.90;;;;;;473924;251;27536;-72
2024/04/17 03:06:14;;;;;;;0.90;0.90;;;4.70;99.90;;;;;;473972;250;27949;-72
2024/04/17 03:08:15;;;;;;;3.00;1.17;;;4.80;99.90;;;;;;473971;250;27900;-71
2024/04/17 03:10:17;;;;;;;1.20;1.00;;;4.80;99.90;;;;;;473950;250;27455;-72
2024/04/17 03:12:18;;;;;;;1.20;1.20;;;4.80;99.90;;;;;;473959;250;27475;-73
2024/04/17 03:14:19;;;;;;;1.00;1.00;;;4.80;99.90;;;;;;473928;251;27503;-72
2024/04/17 03:16:20;;;;;;;1.30;1.20;;;4.80;99.90;;;;;;473946;250;27542;-72
2024/04/17 03:18:22;;;;;;;1.35;1.25;;;4.90;99.90;;;;;;473964;250;27507;-72
2024/04/17 03:20:23;;;;;;;1.25;1.15;;;4.90;99.90;;;;;;473938;250;27455;-71
2024/04/17 03:22:24;;;;;;;1.45;1.37;;;4.90;99.90;;;;;;473994;250;27491;-73
2024/04/17 03:24:25;;;;;;;1.70;1.60;;;4.80;99.90;;;;;;473979;250;27994;-71
2024/04/17 03:26:27;;;;;;;1.20;1.20;;;4.80;99.90;;;;;;473990;250;28070;-73
2024/04/17 03:28:28;;;;;;;1.62;1.50;;;4.90;99.90;;;;;;473961;250;27453;-71
2024/04/17 03:30:29;;;;;;;1.60;1.50;;;4.90;99.90;;;;;;473984;250;27435;-71
2024/04/17 03:32:30;;;;;;;1.42;1.35;;;5.00;99.90;;;;;;473980;250;27541;-72
2024/04/17 03:34:32;;;;;;;1.48;1.37;;;5.10;99.90;;;;;;473935;250;27565;-71
2024/04/17 03:36:33;;;;;;;1.42;1.33;;;5.00;99.90;;;;;;473965;250;27459;-72
2024/04/17 03:38:34;;;;;;;2.00;1.30;;;4.90;99.90;;;;;;473974;250;27550;-73
2024/04/17 03:40:35;;;;;;;1.60;1.50;;;4.90;99.90;;;;;;473968;250;27900;-71
2024/04/17 03:42:37;;;;;;;1.70;1.60;;;4.90;99.90;;;;;;473947;250;29188;-72
2024/04/17 03:44:38;;;;;;;1.50;1.50;;;4.90;99.90;;;;;;473935;250;27518;-71
2024/04/17 03:46:40;;;;;;;1.48;1.37;;;4.90;99.90;;;;;;473915;250;27542;-72
2024/04/17 03:48:40;;;;;;;1.70;1.60;;;4.80;99.90;;;;;;473937;250;27490;-73
2024/04/17 03:50:42;;;;;;;1.70;1.60;;;4.80;99.90;;;;;;473925;250;27423;-72
2024/04/17 03:52:43;;;;;;;2.00;1.70;;;4.80;99.90;;;;;;473926;250;27554;-72
2024/04/17 03:54:44;;;;;;;1.92;1.42;;;4.80;99.90;;;;;;473947;250;27577;-71
2024/04/17 03:56:46;;;;;;;1.92;1.83;;;4.90;99.90;;;;;;473940;250;27903;-71
2024/04/17 03:58:47;;;;;;;1.55;1.50;;;4.90;99.90;;;;;;473933;250;27941;-72
2024/04/17 04:00:48;;;;;;;1.73;1.60;;;4.90;99.90;;;;;;473932;250;27530;-72
2024/04/17 04:02:49;;;;;;;1.58;1.58;;;4.80;99.90;;;;;;473862;250;27574;-71
2024/04/17 04:04:51;;;;;;;1.65;1.55;;;4.80;99.90;;;;;;473891;250;27552;-71
2024/04/17 04:06:52;;;;;;;1.60;1.50;;;4.90;99.90;;;;;;473908;250;27490;-71
2024/04/17 04:08:53;;;;;;;1.52;1.50;;;4.90;99.90;;;;;;473882;250;27562;-72
2024/04/17 04:10:54;;;;;;;1.60;1.50;;;4.90;99.90;;;;;;473922;250;27419;-70
2024/04/17 04:12:56;;;;;;;2.03;1.92;;;4.90;99.90;;;;;;473913;250;28042;-72
2024/04/17 04:14:57;;;;;;;2.03;1.92;;;5.00;99.90;;;;;;473944;250;27958;-72
2024/04/17 04:16:58;;;;;;;2.30;2.10;;;4.80;99.90;;;;;;473944;250;27960;-72
2024/04/17 04:18:59;;;;;;;1.80;1.70;;;4.80;99.90;;;;;;473909;250;27455;-73
2024/04/17 04:21:01;;;;;;;2.20;2.00;;;4.90;99.90;;;;;;473917;250;27554;-72
2024/04/17 04:23:02;;;;;;;2.62;2.30;;;4.80;99.90;;;;;;473939;250;27431;-72
2024/04/17 04:25:05;;;;;;;2.20;2.05;;;4.90;99.90;;;;;;473942;250;27479;-72
2024/04/17 04:27:04;;;;;;;2.30;2.17;;;4.80;99.90;;;;;;473855;251;27416;-72
2024/04/17 04:29:06;;;;;;;2.42;2.22;;;4.90;99.90;;;;;;473962;250;27467;-72
2024/04/17 04:31:07;;;;;;;2.20;2.10;;;5.00;99.90;;;;;;473914;250;28018;-72
2024/04/17 04:33:08;;;;;;;2.42;2.22;;;5.10;99.90;;;;;;473918;250;28029;-72
2024/04/17 04:35:09;;;;;;;2.85;2.20;;;5.00;99.90;;;;;;473947;250;27463;-72
2024/04/17 04:37:11;;;;;;;2.60;2.40;;;5.00;99.90;;;;;;473923;250;27482;-72
2024/04/17 04:39:12;;;;;;;2.60;2.40;;;5.00;99.90;;;;;;473940;250;27474;-72
2024/04/17 04:41:13;;;;;;;2.53;2.35;;;4.90;99.90;;;;;;473964;250;27484;-72
2024/04/17 04:43:14;;;;;;;2.95;2.15;;;4.90;99.90;;;;;;473947;250;27506;-72
2024/04/17 04:45:16;;;;;;;2.40;2.20;;;4.90;99.90;;;;;;473917;250;27546;-72
2024/04/17 04:47:17;;;;;;;3.33;3.00;;;4.90;99.90;;;;;;473929;250;28689;-71
2024/04/17 04:49:18;;;;;;;2.72;2.53;;;5.00;99.90;;;;;;473949;250;27972;-71
2024/04/17 04:51:19;;;;;;;2.47;2.28;;;5.00;99.90;;;;;;473962;250;27583;-73
2024/04/17 04:53:21;;;;;;;4.50;2.90;;;5.00;99.90;;;;;;473937;250;27431;-72
2024/04/17 04:55:22;;;;;;;2.97;2.67;;;5.10;99.90;;;;;;466276;250;27455;-72
2024/04/17 04:57:23;;;;;;;2.30;2.20;;;5.10;99.90;;;;;;460780;258;27562;-74
2024/04/17 04:59:24;;;;;;;2.90;2.70;;;5.20;99.90;;;;;;460808;258;27546;-72
2024/04/17 05:01:26;;;;;;;6.03;2.42;;;5.20;99.90;;;;;;460785;258;27502;-72
2024/04/17 05:03:27;;;;;;;2.70;2.50;;;5.10;99.90;;;;;;460721;258;27942;-71
2024/04/17 05:05:28;;;;;;;3.30;3.00;;;5.10;99.90;;;;;;463156;253;28033;-72
2024/04/17 05:07:29;;;;;;;3.53;3.20;;;5.10;99.90;;;;;;470254;252;27546;-72
2024/04/17 05:09:31;;;;;;;3.58;3.28;;;5.10;99.90;;;;;;470238;252;27546;-72
2024/04/17 05:11:32;;;;;;;4.18;2.90;;;5.20;99.90;;;;;;470269;252;27546;-72
2024/04/17 05:13:33;;;;;;;5.80;3.45;;;5.10;99.90;;;;;;470266;252;27520;-70
2024/04/17 05:15:35;;;;;;;3.60;3.30;;;5.10;99.90;;;;;;470331;252;27442;-71
2024/04/17 05:17:36;;;;;;;5.60;3.92;;;5.10;99.90;;;;;;470419;252;27498;-72
2024/04/17 05:19:37;;;;;;;3.83;3.53;;;5.00;99.90;;;;;;470413;252;27974;-71
2024/04/17 05:21:38;;;;;;;4.80;4.07;;;5.00;99.90;;;;;;470270;252;27938;-72
2024/04/17 05:23:40;;;;;;;4.30;3.90;;;5.10;99.90;;;;;;470383;252;28633;-71
2024/04/17 05:25:41;;;;;;;4.22;3.85;;;5.00;99.90;;;;;;470455;252;27414;-72
2024/04/17 05:27:42;;;;;;;4.95;4.00;;;5.00;99.90;;;;;;470426;252;27538;-72
2024/04/17 05:29:43;;;;;;;4.28;3.85;;;5.00;99.90;;;;;;470421;252;27461;-72
2024/04/17 05:31:45;;;;;;;4.55;3.95;;;5.10;99.90;;;;;;470396;252;27538;-72
2024/04/17 05:33:46;;;;;;;4.60;4.15;;;5.10;99.90;;;;;;470418;252;27471;-73
2024/04/17 05:35:47;;;;;;;4.53;3.90;;;5.10;99.90;;;;;;470424;252;27979;-71
2024/04/17 05:37:48;;;;;;;4.65;3.70;;;5.10;99.90;;;;;;470423;252;27971;-72
2024/04/17 05:39:50;;;;;;;4.97;4.57;;;5.10;99.90;;;;;;470375;252;27448;-72
2024/04/17 05:41:51;;;;;;;5.25;4.28;;;5.10;99.90;;;;;;470378;252;27507;-72
2024/04/17 05:43:52;;;;;;;6.78;4.53;;;5.20;99.90;;;;;;470417;252;27450;-73
2024/04/17 05:45:54;;;;;;;5.18;4.30;;;5.20;99.90;;;;;;470419;252;27529;-72
2024/04/17 05:47:55;;;;;;;5.85;5.00;;;5.20;99.90;;;;;;470429;252;27459;-72
2024/04/17 05:49:56;;;;;;;6.43;4.87;;;5.20;99.90;;;;;;470417;252;27515;-72
2024/04/17 05:51:57;;;;;;;6.07;4.57;;;5.30;99.90;;;;;;470423;252;27875;-72
2024/04/17 05:53:58;;;;;;;6.30;5.50;;;5.30;99.90;;;;;;470414;252;28666;-72
2024/04/17 05:56:00;;;;;;;7.57;5.78;;;5.30;99.90;;;;;;470420;252;27489;-72
2024/04/17 05:58:01;;;;;;;6.60;5.15;;;5.40;99.90;;;;;;470433;252;27458;-73
2024/04/17 06:00:04;;;;;;;7.97;5.22;;;5.60;99.90;;;;;;470433;252;27461;-72
2024/04/17 06:02:03;;;;;;;8.50;6.05;;;5.70;99.90;;;;;;470416;252;27427;-72
2024/04/17 06:04:05;;;;;;;7.93;5.45;;;5.80;99.90;;;;;;470439;252;27535;-72
2024/04/17 06:06:11;;;;;;;6.43;5.10;;;;;;;;;;467908;252;27886;-72
2024/04/17 06:08:13;;;;;;;8.30;6.50;;;;;;;;;;471883;251;26678;-72
2024/04/17 06:10:15;;;;;;;8.23;6.57;;;;;;;;;;456086;256;26429;-72
2024/04/17 06:12:17;;;;;;;8.88;6.85;;;;;;;;;;472267;250;26449;-72
2024/04/17 06:14:20;;;;;;;9.38;6.32;;;;;;;;;;472566;251;26445;-71
2024/04/17 06:16:22;;;;;;;10.63;6.87;;;;;;;;;;472512;251;27024;-71
2024/04/17 06:18:24;;;;;;;11.57;7.35;;;;;;;;;;472551;251;26655;-72
2024/04/17 06:20:26;;;;;;;11.82;7.87;;;;;;;;;;472311;251;26508;-71
2024/04/17 06:22:28;;;;;;;13.20;8.65;;;;;;;;;;472584;251;26461;-72
2024/04/17 06:24:30;;;;;;;13.35;9.25;;;;;;;;;;472567;251;26501;-71
2024/04/17 06:26:32;;;;;;;11.23;7.45;;;;;;;;;;472578;251;26887;-72
2024/04/17 06:28:34;;;;;;;11.32;8.02;;;;;;;;;;472581;251;26419;-72
2024/04/17 06:30:37;;;;;;;11.35;8.52;;;;;;;;;;472586;251;26382;-72
2024/04/17 06:32:39;;;;;;;14.00;9.40;;;;;;;;;;472600;251;26377;-71
2024/04/17 06:34:41;;;;;;;11.30;8.30;;;;;;;;;;472612;251;26371;-74
2024/04/17 06:36:43;;;;;;;13.90;8.43;;;;;;;;;;472607;251;26920;-73
2024/04/17 06:38:45;;;;;;;13.35;9.63;;;;;;;;;;472482;251;26477;-72
2024/04/17 06:40:47;;;;;;;14.93;8.40;;;;;;;;;;472606;251;26369;-71
2024/04/17 06:42:49;;;;;;;12.73;8.90;;;;;;;;;;472602;251;26817;-72
2024/04/17 06:44:51;;;;;;;13.23;9.63;;;;;;;;;;472583;251;26461;-71
2024/04/17 06:46:54;;;;;;;15.80;9.23;;;;;;;;;;472619;251;28931;-71
2024/04/17 06:48:56;;;;;;;13.52;8.45;;;;;;;;;;472604;251;27687;-72
2024/04/17 06:50:58;;;;;;;13.40;8.83;;;;;;;;;;472600;251;26455;-72
2024/04/17 06:53:00;;;;;;;19.20;8.85;;;;;;;;;;472598;251;27728;-72
2024/04/17 06:55:01;;;;;;;14.80;9.67;;;6.20;99.90;;;;;;472610;251;26447;-72
2024/04/17 06:57:02;;;;;;;12.27;8.13;;;6.20;99.90;;;;;;472534;251;28870;-71
2024/04/17 06:59:04;;;;;;;16.93;7.73;;;6.20;99.90;;;;;;472570;251;28945;-72
2024/04/17 07:01:05;;;;;;;13.83;8.80;;;6.20;99.90;;;;;;472566;251;28030;-71
2024/04/17 07:03:06;;;;;;;16.17;8.67;;;6.20;99.90;;;;;;472608;251;27861;-71
2024/04/17 07:05:07;;;;;;;11.50;7.73;;;6.20;99.90;;;;;;472603;251;28549;-72
2024/04/17 07:07:09;;;;;;;13.20;8.43;;;6.10;99.90;;;;;;472590;251;28473;-72
2024/04/17 07:09:10;;;;;;;16.37;8.53;;;6.10;99.90;;;;;;472583;251;29382;-72
2024/04/17 07:11:11;;;;;;;13.73;9.50;;;6.00;99.90;;;;;;472610;251;28004;-73
2024/04/17 07:13:13;;;;;;;13.33;8.80;;;6.10;99.90;;;;;;472570;251;27997;-72
2024/04/17 07:15:14;;;;;;;11.07;8.83;;;6.10;99.90;;;;;;472579;251;28022;-73
2024/04/17 07:17:15;;;;;;;13.20;8.40;;;6.20;99.90;;;;;;472572;251;28109;-72
2024/04/17 07:19:16;;;;;;;11.52;7.72;;;6.30;99.90;;;;;;472576;251;28057;-72
2024/04/17 07:21:17;;;;;;;16.30;8.83;;;6.20;99.90;;;;;;472610;251;27619;-73
2024/04/17 07:23:19;;;;;;;11.70;7.10;;;5.90;99.90;;;;;;472613;251;27743;-71
2024/04/17 07:25:20;;;;;;;16.50;8.00;;;5.80;99.90;;;;;;472571;251;28112;-71
2024/04/17 07:27:22;;;;;;;15.75;7.80;;;5.80;99.90;;;;;;472585;251;28770;-71
2024/04/17 07:29:22;;;;;;;14.68;8.55;;;5.80;99.90;;;;;;472531;251;28056;-72
2024/04/17 07:31:24;;;;;;;15.73;7.77;;;5.90;99.90;;;;;;472591;251;27614;-72
2024/04/17 07:33:25;;;;;;;14.65;8.80;;;6.00;99.90;;;;;;472561;251;28185;-72
2024/04/17 07:35:26;;;;;;;13.00;8.03;;;6.10;99.90;;;;;;472554;251;27553;-72
2024/04/17 07:37:27;;;;;;;14.40;8.83;;;6.00;99.90;;;;;;472571;251;29400;-73
2024/04/17 07:39:29;;;;;;;16.53;8.50;;;6.10;99.90;;;;;;472583;251;28363;-72
2024/04/17 07:41:30;;;;;;;14.50;8.50;;;6.20;99.90;;;;;;472553;251;28986;-72
2024/04/17 07:43:31;;;;;;;12.90;8.50;;;6.30;99.90;;;;;;472543;251;28321;-72
2024/04/17 07:45:32;;;;;;;13.50;7.80;;;6.30;99.90;;;;;;472545;251;28293;-71
2024/04/17 07:47:34;;;;;;;13.03;7.33;;;6.30;99.90;;;;;;472562;251;28769;-72
2024/04/17 07:49:35;;;;;;;9.43;7.17;;;6.50;99.90;;;;;;472551;251;28085;-71
2024/04/17 07:51:36;;;;;;;15.03;7.27;;;6.50;99.90;;;;;;472573;251;28037;-72
2024/04/17 07:53:37;;;;;;;12.83;7.80;;;6.40;99.90;;;;;;472540;251;28052;-72
2024/04/17 07:55:39;;;;;;;10.75;6.80;;;6.60;99.90;;;;;;471273;251;39232;-72
2024/04/17 07:57:40;;;;;;;10.30;7.40;;;6.60;99.90;;;;;;472573;251;27545;-72
2024/04/17 07:59:41;;;;;;;18.63;7.30;;;6.70;99.90;;;;;;472568;251;28132;-72
2024/04/17 08:01:42;;;;;;;15.07;7.17;;;6.90;99.90;;;;;;472572;251;28042;-71
2024/04/17 08:03:44;;;;;;;11.20;6.20;;;6.90;99.90;;;;;;472551;251;27890;-71
2024/04/17 08:05:45;;;;;;;10.27;6.50;;;6.80;99.90;;;;;;472596;251;27850;-72
2024/04/17 08:07:46;;;;;;;9.20;5.90;;;6.80;99.90;;;;;;472574;251;28346;-72
2024/04/17 08:09:47;;;;;;;8.80;5.70;;;7.00;99.90;;;;;;472585;251;28192;-71
2024/04/17 08:11:49;;;;;;;10.43;6.10;;;7.20;99.90;;;;;;472540;251;28531;-71
2024/04/17 08:13:50;;;;;;;16.47;6.80;;;7.50;99.90;;;;;;472539;251;28745;-72
2024/04/17 08:15:54;;;;;;;8.77;5.90;;;7.50;99.90;;;;;;472576;251;27754;-72
2024/04/17 08:17:55;;;;;;;13.67;6.87;;;7.40;99.90;;;;;;472577;251;28002;-72
2024/04/17 08:19:58;;;;;;;8.63;6.17;;;7.40;99.90;;;;;;472564;251;28000;-72
2024/04/17 08:21:58;;;;;;;7.70;5.80;;;7.40;99.90;;;;;;472471;251;27961;-72
2024/04/17 08:23:59;;;;;;;11.27;6.40;;;7.40;99.90;;;;;;472574;251;27750;-72
2024/04/17 08:26:00;;;;;;;11.27;5.90;;;7.20;99.90;;;;;;472513;251;28107;-72
2024/04/17 08:28:01;;;;;;;6.53;5.33;;;7.10;99.90;;;;;;472519;251;28153;-72
2024/04/17 08:30:03;;;;;;;13.13;5.83;;;7.20;99.90;;;;;;472542;251;28405;-72
2024/04/17 08:32:04;;;;;;;8.60;5.83;;;7.10;99.90;;;;;;472525;251;28338;-71
2024/04/17 08:34:05;;;;;;;7.33;5.17;;;7.10;99.90;;;;;;472524;251;28549;-72
2024/04/17 08:36:06;;;;;;;14.10;5.87;;;7.10;99.90;;;;;;472548;251;28061;-71
2024/04/17 08:38:08;;;;;;;14.60;6.40;;;7.00;99.90;;;;;;471563;246;27598;-71
2024/04/17 08:40:09;;;;;;;9.33;5.20;;;7.10;99.90;;;;;;469509;252;27574;-71
2024/04/17 08:42:11;;;;;;;17.27;5.70;;;7.10;99.90;;;;;;469499;252;27953;-70
2024/04/17 08:44:11;;;;;;;7.70;5.20;;;7.00;99.90;;;;;;469173;252;28168;-71
2024/04/17 08:46:13;;;;;;;7.37;5.23;;;6.90;99.90;;;;;;469071;252;27757;-72
2024/04/17 08:48:14;;;;;;;10.30;4.80;;;6.80;99.90;;;;;;469456;252;27946;-71
2024/04/17 08:50:15;;;;;;;12.37;4.83;;;6.90;99.90;;;;;;469484;252;27932;-71
2024/04/17 08:52:16;;;;;;;14.03;4.30;;;7.00;99.90;;;;;;469523;252;27938;-71
2024/04/17 08:54:18;;;;;;;9.30;4.23;;;7.20;99.90;;;;;;469544;252;28151;-71
2024/04/17 08:56:19;;;;;;;9.47;4.40;;;7.30;99.90;;;;;;469547;252;28413;-71
2024/04/17 08:58:20;;;;;;;9.23;4.37;;;7.40;99.90;;;;;;469429;252;28557;-71
2024/04/17 09:00:21;;;;;;;5.70;4.30;;;7.80;99.90;;;;;;469541;252;28554;-71
2024/04/17 09:02:23;;;;;;;6.50;4.17;;;7.90;99.90;;;;;;469479;252;28724;-72
2024/04/17 09:04:24;;;;;;;7.53;4.07;;;8.20;99.90;;;;;;469567;252;27800;-70
2024/04/17 09:06:25;;;;;;;10.40;4.63;;;8.30;99.90;;;;;;469560;252;27768;-71
2024/04/17 09:08:26;;;;;;;6.73;4.37;;;8.20;99.90;;;;;;469542;252;27924;-71
2024/04/17 09:10:28;;;;;;;6.00;4.10;;;7.70;99.90;;;;;;469549;252;28009;-72
2024/04/17 09:12:31;;;;;;;5.33;4.20;;;7.40;99.90;;;;;;469549;252;27969;-71
2024/04/17 09:14:30;;;;;;;11.30;5.47;;;7.30;99.90;;;;;;469464;253;27783;-71
2024/04/17 09:16:31;;;;;;;5.17;4.37;;;7.30;99.90;;;;;;469547;252;27831;-72
2024/04/17 09:18:33;;;;;;;5.70;4.20;;;7.40;99.90;;;;;;469555;252;27958;-72
2024/04/17 09:20:52;;;;;;;8.13;4.70;;;7.70;99.90;;;;;;469595;253;27992;-72
2024/04/17 09:23:12;;;;;;;6.33;4.30;;;7.80;99.90;;;;;;469580;253;28408;-72
2024/04/17 09:25:31;;;;;;;6.27;3.97;;;7.90;99.90;;;;;;469573;253;27981;-72
2024/04/17 09:27:51;;;;;;;5.83;3.77;;;7.80;99.90;;;;;;469561;253;27989;-71
2024/04/17 09:29:52;;;;;;;6.80;4.13;;;7.60;99.90;;;;;;469570;252;28011;-71
2024/04/17 09:31:53;;;;;;;5.70;3.10;;;7.50;99.90;;;;;;469550;252;27802;-72
2024/04/17 09:33:55;;;;;;;5.00;3.20;;;7.40;99.20;;;;;;469549;252;27913;-72
2024/04/17 09:35:56;;;;;;;5.90;3.93;;;7.50;99.90;;;;;;469543;252;27908;-71
2024/04/17 09:37:57;;;;;;;6.27;3.27;;;7.60;99.80;;;;;;469555;252;27882;-72
2024/04/17 09:39:58;;;;;;;7.63;3.30;;;7.60;98.70;;;;;;469549;252;27923;-72
2024/04/17 09:42:00;;;;;;;7.47;3.30;;;7.60;98.40;;;;;;469549;252;28594;-72
2024/04/17 09:44:02;;;;;;;5.57;3.33;;;7.90;99.80;;;;;;469568;252;27893;-71
2024/04/17 09:46:02;;;;;;;4.50;3.50;;;8.20;96.90;;;;;;469544;252;28406;-71
2024/04/17 09:48:04;;;;;;;4.10;3.23;;;8.50;97.50;;;;;;469567;252;28580;-73
2024/04/17 09:50:05;;;;;;;7.30;3.87;;;8.70;97.80;;;;;;469534;252;28002;-72
2024/04/17 09:52:07;;;;;;;7.30;3.77;;;8.80;97.40;;;;;;469570;252;28429;-72
2024/04/17 09:54:07;;;;;;;4.40;3.23;;;8.50;95.30;;;;;;469494;253;27757;-71
2024/04/17 09:56:08;;;;;;;5.37;2.97;;;8.30;96.90;;;;;;469522;252;27927;-72
2024/04/17 09:58:11;;;;;;;5.50;3.33;;;8.00;96.10;;;;;;469521;252;27934;-72
2024/04/17 10:00:11;;;;;;;5.50;3.43;;;8.10;97.60;;;;;;469436;252;28055;-71
2024/04/17 10:02:12;;;;;;;9.23;3.40;;;7.90;96.90;;;;;;469440;251;27916;-73
2024/04/17 10:04:13;;;;;;;3.83;3.03;;;7.90;97.50;;;;;;469482;252;27727;-72
2024/04/17 10:06:15;;;;;;;6.00;2.60;;;7.90;96.70;;;;;;469571;252;27539;-71
2024/04/17 10:08:16;;;;;;;5.10;3.40;;;8.00;96.30;;;;;;469545;252;28050;-72
2024/04/17 10:10:17;;;;;;;6.17;2.93;;;8.10;96.50;;;;;;469552;252;27989;-72
2024/04/17 10:12:18;;;;;;;8.17;3.00;;;8.10;95.40;;;;;;469539;252;27931;-72
2024/04/17 10:14:20;;;;;;;4.10;2.30;;;8.30;94.70;;;;;;469565;252;27944;-71
2024/04/17 10:16:21;;;;;;;6.50;2.57;;;8.40;93.70;;;;;;469599;252;28213;-71
2024/04/17 10:18:22;;;;;;;3.20;2.80;;;8.50;93.80;;;;;;469569;251;28529;-72
2024/04/17 10:20:23;;;;;;;10.17;3.17;;;8.70;93.90;;;;;;469575;252;28386;-72
2024/04/17 10:22:25;;;;;;;6.57;2.87;;;8.70;94.60;;;;;;469569;252;28317;-74
2024/04/17 10:24:26;;;;;;;5.53;3.10;;;8.80;94.80;;;;;;469560;252;28429;-71
2024/04/17 10:26:27;;;;;;;5.33;2.70;;;9.10;94.90;;;;;;469555;252;27998;-74
2024/04/17 10:28:28;;;;;;;4.90;3.53;;;8.90;95.30;;;;;;469561;252;27945;-72
2024/04/17 10:30:30;;;;;;;5.77;3.00;;;8.90;95.60;;;;;;469547;252;27969;-72
2024/04/17 10:32:31;;;;;;;6.20;2.83;;;8.90;95.50;;;;;;469542;252;27893;-72
2024/04/17 10:34:32;;;;;;;4.23;3.13;;;8.90;94.70;;;;;;469559;252;28165;-72
2024/04/17 10:36:34;;;;;;;6.73;3.80;;;9.00;94.50;;;;;;469556;252;27991;-73
2024/04/17 10:38:35;;;;;;;4.47;2.73;;;8.90;94.70;;;;;;469556;252;28026;-71
2024/04/17 10:40:36;;;;;;;6.40;3.00;;;8.90;94.90;;;;;;469528;252;27551;-70
2024/04/17 10:42:37;;;;;;;3.53;2.67;;;9.10;94.90;;;;;;469535;252;27949;-73
2024/04/17 10:44:38;;;;;;;6.90;2.60;;;9.20;93.10;;;;;;469565;252;28045;-71
2024/04/17 10:46:40;;;;;;;3.03;2.77;;;9.10;92.10;;;;;;469540;252;28052;-71